Time,TemperatureF,DewpointF,PressureIn,WindDirection,WindDirectionDegrees,WindSpeedMPH,WindSpeedGustMPH,Humidity,HourlyPrecipIn,Conditions,Clouds,dailyrainin,SoftwareType,DateUTC
2013-10-19 00:00:00,43.5,41.6,29.79,SW,223,0.0,1.0,93,0.00,RA,OVC,0.00,WeatherDisplay:10.37,2013-10-19 04:00:00,
2013-10-19 00:05:00,43.4,41.5,29.79,SW,225,0.0,1.0,93,0.00,RA,OVC,0.00,WeatherDisplay:10.37,2013-10-19 04:05:00,
2013-10-19 00:10:00,43.3,41.4,29.79,SW,229,0.0,3.0,93,0.00,FEW,OVC,0.00,WeatherDisplay:10.37,2013-10-19 04:10:00,
2013-10-19 00:15:00,43.3,41.4,29.79,SW,225,0.0,2.0,93,0.00,FEW,OVC,0.00,WeatherDisplay:10.37,2013-10-19 04:15:00,
2013-10-19 00:20:00,43.2,41.3,29.79,SW,224,0.0,1.0,93,0.00,FEW,OVC,0.00,WeatherDisplay:10.37,2013-10-19 04:20:00,
2013-10-19 00:25:00,43.5,41.6,29.79,SW,236,0.0,1.0,93,0.00,FEW,OVC,0.00,WeatherDisplay:10.37,2013-10-19 04:25:00,
2013-10-19 00:30:00,43.5,41.6,29.79,WSW,247,0.0,1.0,93,0.00,FEW,OVC,0.00,WeatherDisplay:10.37,2013-10-19 04:30:00,
2013-10-19 00:35:00,43.4,41.5,29.79,WSW,256,0.0,0.0,93,0.00,FEW,OVC,0.00,WeatherDisplay:10.37,2013-10-19 04:35:00,
2013-10-19 00:40:00,43.2,41.3,29.80,WSW,250,0.0,1.0,93,0.00,FEW,OVC,0.00,WeatherDisplay:10.37,2013-10-19 04:40:00,
2013-10-19 00:45:00,43.0,41.1,29.80,SW,229,0.0,0.0,93,0.00,FEW,OVC,0.00,WeatherDisplay:10.37,2013-10-19 04:45:00,
2013-10-19 00:50:00,42.5,40.6,29.80,SW,229,0.0,0.0,93,0.00,FEW,OVC,0.00,WeatherDisplay:10.37,2013-10-19 04:50:00,
2013-10-19 01:00:00,41.6,40.0,29.80,SW,229,0.0,0.0,94,0.00,FEW,OVC,0.00,WeatherDisplay:10.37,2013-10-19 05:00:00,
2013-10-19 01:05:00,41.4,39.8,29.80,SW,229,0.0,0.0,94,0.00,FEW,OVC,0.00,WeatherDisplay:10.37,2013-10-19 05:05:00,
2013-10-19 01:10:00,41.2,39.9,29.80,SW,229,0.0,0.0,95,0.00,FEW,OVC,0.00,WeatherDisplay:10.37,2013-10-19 05:10:00,
2013-10-19 01:15:00,41.1,39.8,29.80,SW,229,0.0,0.0,95,0.00,FEW,OVC,0.00,WeatherDisplay:10.37,2013-10-19 05:15:00,
2013-10-19 01:20:00,40.8,39.5,29.80,SW,229,0.0,0.0,95,0.00,FEW,OVC,0.00,WeatherDisplay:10.37,2013-10-19 05:20:00,
2013-10-19 01:25:00,40.6,39.3,29.80,SW,229,0.0,0.0,95,0.00,FEW,OVC,0.00,WeatherDisplay:10.37,2013-10-19 05:25:00,
2013-10-19 01:30:00,40.6,39.3,29.80,SW,229,0.0,0.0,95,0.00,FEW,OVC,0.00,WeatherDisplay:10.37,2013-10-19 05:30:00,
2013-10-19 01:35:00,40.5,39.2,29.81,SW,229,0.0,0.0,95,0.00,FEW,OVC,0.00,WeatherDisplay:10.37,2013-10-19 05:35:00,
2013-10-19 01:40:00,40.5,39.4,29.81,SW,229,0.0,0.0,96,0.00,FEW,OVC,0.00,WeatherDisplay:10.37,2013-10-19 05:40:00,
2013-10-19 01:45:00,40.4,39.1,29.81,WSW,237,0.0,1.0,95,0.00,FEW,OVC,0.00,WeatherDisplay:10.37,2013-10-19 05:45:00,
2013-10-19 01:50:00,40.8,39.7,29.80,WSW,249,0.0,2.0,96,0.00,FEW,OVC,0.00,WeatherDisplay:10.37,2013-10-19 05:50:00,
2013-10-19 01:55:00,40.7,39.6,29.81,WSW,245,0.0,0.0,96,0.00,FEW,OVC,0.00,WeatherDisplay:10.37,2013-10-19 05:55:00,
2013-10-19 02:00:00,40.4,39.4,29.81,WSW,244,0.0,0.0,96,0.00,FEW,OVC,0.00,WeatherDisplay:10.37,2013-10-19 06:00:00,
2013-10-19 02:05:00,40.1,39.1,29.81,WSW,244,0.0,0.0,96,0.00,FEW,OVC,0.00,WeatherDisplay:10.37,2013-10-19 06:05:00,
2013-10-19 02:10:00,39.9,38.9,29.81,WSW,244,0.0,0.0,96,0.00,FEW,OVC,0.00,WeatherDisplay:10.37,2013-10-19 06:10:00,
2013-10-19 02:15:00,39.8,38.8,29.81,WSW,244,0.0,0.0,96,0.00,SKC,OVC,0.00,WeatherDisplay:10.37,2013-10-19 06:15:00,
2013-10-19 02:20:00,39.8,38.7,29.80,WSW,244,0.0,0.0,96,0.00,SKC,OVC,0.00,WeatherDisplay:10.37,2013-10-19 06:20:00,
2013-10-19 02:25:00,39.7,38.6,29.80,WSW,244,0.0,0.0,96,0.00,SKC,OVC,0.00,WeatherDisplay:10.37,2013-10-19 06:25:00,
2013-10-19 02:30:00,39.4,38.3,29.81,WSW,244,0.0,0.0,96,0.00,SKC,OVC,0.00,WeatherDisplay:10.37,2013-10-19 06:30:00,
2013-10-19 02:35:00,39.1,38.1,29.81,WSW,244,0.0,0.0,96,0.00,SKC,OVC,0.00,WeatherDisplay:10.37,2013-10-19 06:35:00,
2013-10-19 02:40:00,38.9,37.9,29.81,WSW,244,0.0,0.0,96,0.00,SKC,OVC,0.00,WeatherDisplay:10.37,2013-10-19 06:40:00,
2013-10-19 02:45:00,38.8,37.8,29.81,WSW,244,0.0,0.0,96,0.00,SKC,OVC,0.00,WeatherDisplay:10.37,2013-10-19 06:45:00,
2013-10-19 02:50:00,38.6,37.6,29.81,WSW,244,0.0,0.0,96,0.00,SKC,OVC,0.00,WeatherDisplay:10.37,2013-10-19 06:50:00,
2013-10-19 02:55:00,38.5,37.5,29.81,WSW,244,0.0,0.0,96,0.00,SKC,OVC,0.00,WeatherDisplay:10.37,2013-10-19 06:55:00,
2013-10-19 03:00:00,38.6,37.6,29.81,WSW,244,0.0,0.0,96,0.00,SKC,OVC,0.00,WeatherDisplay:10.37,2013-10-19 07:00:00,
2013-10-19 03:05:00,38.6,37.6,29.81,WSW,244,0.0,0.0,96,0.00,SKC,OVC,0.00,WeatherDisplay:10.37,2013-10-19 07:05:00,
2013-10-19 03:10:00,38.5,37.5,29.81,WSW,244,0.0,0.0,96,0.00,SKC,OVC,0.00,WeatherDisplay:10.37,2013-10-19 07:10:00,
2013-10-19 03:15:00,38.1,37.1,29.81,WSW,244,0.0,0.0,96,0.00,SKC,OVC,0.00,WeatherDisplay:10.37,2013-10-19 07:15:00,
2013-10-19 03:20:00,38.0,37.0,29.81,WSW,244,0.0,0.0,96,0.00,SKC,OVC,0.00,WeatherDisplay:10.37,2013-10-19 07:20:00,
2013-10-19 03:25:00,38.0,37.0,29.81,WSW,244,0.0,0.0,96,0.00,SKC,OVC,0.00,WeatherDisplay:10.37,2013-10-19 07:25:00,
2013-10-19 03:30:00,38.2,37.2,29.81,WSW,244,0.0,0.0,96,0.00,SKC,OVC,0.00,WeatherDisplay:10.37,2013-10-19 07:30:00,
2013-10-19 03:35:00,38.2,37.2,29.81,WSW,244,0.0,0.0,96,0.00,SKC,OVC,0.00,WeatherDisplay:10.37,2013-10-19 07:35:00,
2013-10-19 03:40:00,38.2,37.2,29.80,WSW,244,0.0,0.0,96,0.00,SKC,OVC,0.00,WeatherDisplay:10.37,2013-10-19 07:40:00,
2013-10-19 03:45:00,38.2,37.9,29.80,WSW,244,0.0,0.0,99,0.00,SKC,OVC,0.00,WeatherDisplay:10.37,2013-10-19 07:45:00,
2013-10-19 03:50:00,38.4,38.4,29.80,WSW,247,0.0,0.0,100,0.00,SKC,OVC,0.00,WeatherDisplay:10.37,2013-10-19 07:50:00,
2013-10-19 03:55:00,38.4,37.4,29.81,WSW,251,0.0,0.0,96,0.00,SKC,OVC,0.00,WeatherDisplay:10.37,2013-10-19 07:55:00,
2013-10-19 04:00:00,38.0,37.0,29.81,WSW,253,0.0,0.0,96,0.00,SKC,OVC,0.00,WeatherDisplay:10.37,2013-10-19 08:00:00,
2013-10-19 04:05:00,37.7,36.7,29.81,WSW,253,0.0,0.0,96,0.00,SKC,OVC,0.00,WeatherDisplay:10.37,2013-10-19 08:05:00,
2013-10-19 04:10:00,37.5,36.5,29.81,WSW,253,0.0,0.0,96,0.00,SKC,OVC,0.00,WeatherDisplay:10.37,2013-10-19 08:10:00,
2013-10-19 04:15:00,37.4,36.4,29.81,WSW,253,0.0,0.0,96,0.00,FEW,OVC,0.00,WeatherDisplay:10.37,2013-10-19 08:15:00,
2013-10-19 04:20:00,37.4,36.4,29.81,WSW,252,0.0,0.0,96,0.00,FEW,OVC,0.00,WeatherDisplay:10.37,2013-10-19 08:20:00,
2013-10-19 04:25:00,37.5,37.5,29.81,WSW,251,0.0,0.0,100,0.00,FEW,OVC,0.00,WeatherDisplay:10.37,2013-10-19 08:25:00,
2013-10-19 04:30:00,37.7,37.7,29.82,WSW,250,0.0,0.0,100,0.00,FEW,OVC,0.00,WeatherDisplay:10.37,2013-10-19 08:30:00,
2013-10-19 04:35:00,37.9,37.9,29.82,West,261,0.0,1.0,100,0.00,FEW,OVC,0.00,WeatherDisplay:10.37,2013-10-19 08:35:00,
2013-10-19 04:40:00,37.8,37.8,29.82,West,271,0.0,0.0,100,0.00,FEW,OVC,0.00,WeatherDisplay:10.37,2013-10-19 08:40:00,
2013-10-19 04:45:00,37.6,37.6,29.82,West,271,0.0,0.0,100,0.00,FEW,OVC,0.00,WeatherDisplay:10.37,2013-10-19 08:45:00,
2013-10-19 04:50:00,37.4,36.4,29.82,West,271,0.0,0.0,96,0.00,FEW,OVC,0.00,WeatherDisplay:10.37,2013-10-19 08:50:00,
2013-10-19 04:55:00,37.3,36.2,29.82,West,271,0.0,0.0,96,0.00,FEW,OVC,0.00,WeatherDisplay:10.37,2013-10-19 08:55:00,
2013-10-19 05:00:00,37.3,37.3,29.82,West,271,0.0,0.0,100,0.00,FEW,OVC,0.00,WeatherDisplay:10.37,2013-10-19 09:00:00,
2013-10-19 05:05:00,37.4,37.4,29.82,West,271,0.0,0.0,100,0.00,FEW,OVC,0.00,WeatherDisplay:10.37,2013-10-19 09:05:00,
2013-10-19 05:10:00,37.4,37.4,29.82,West,271,0.0,0.0,100,0.00,FEW,OVC,0.00,WeatherDisplay:10.37,2013-10-19 09:10:00,
2013-10-19 05:15:00,37.4,37.4,29.82,West,272,0.0,0.0,100,0.00,SKC,OVC,0.00,WeatherDisplay:10.37,2013-10-19 09:15:00,
2013-10-19 05:20:00,37.6,37.6,29.82,West,275,0.0,0.0,100,0.00,SKC,OVC,0.00,WeatherDisplay:10.37,2013-10-19 09:20:00,
2013-10-19 05:25:00,37.9,37.9,29.82,West,277,0.0,0.0,100,0.00,SKC,OVC,0.00,WeatherDisplay:10.37,2013-10-19 09:25:00,
2013-10-19 05:30:00,38.2,38.2,29.82,West,277,0.0,0.0,100,0.00,SKC,OVC,0.00,WeatherDisplay:10.37,2013-10-19 09:30:00,
2013-10-19 05:35:00,38.1,38.1,29.81,WNW,282,0.0,1.0,100,0.00,SKC,OVC,0.00,WeatherDisplay:10.37,2013-10-19 09:35:00,
2013-10-19 05:40:00,38.1,38.1,29.82,NW,305,0.0,0.0,100,0.00,SKC,OVC,0.00,WeatherDisplay:10.37,2013-10-19 09:40:00,
2013-10-19 05:45:00,37.8,37.8,29.82,NW,316,0.0,0.0,100,0.00,SKC,OVC,0.00,WeatherDisplay:10.37,2013-10-19 09:45:00,
2013-10-19 05:50:00,37.6,37.6,29.82,NW,316,0.0,0.0,100,0.00,SKC,OVC,0.00,WeatherDisplay:10.37,2013-10-19 09:50:00,
2013-10-19 05:55:00,37.5,37.5,29.81,NW,316,0.0,0.0,100,0.00,SKC,OVC,0.00,WeatherDisplay:10.37,2013-10-19 09:55:00,
2013-10-19 06:00:00,37.5,37.5,29.82,NW,316,0.0,0.0,100,0.00,SKC,OVC,0.00,WeatherDisplay:10.37,2013-10-19 10:00:00,
2013-10-19 06:05:00,37.5,37.5,29.82,NW,316,0.0,0.0,100,0.00,SKC,OVC,0.00,WeatherDisplay:10.37,2013-10-19 10:05:00,
2013-10-19 06:10:00,37.3,37.3,29.82,NW,316,0.0,0.0,100,0.00,SKC,OVC,0.00,WeatherDisplay:10.37,2013-10-19 10:10:00,
2013-10-19 06:15:00,37.0,37.0,29.82,NW,316,0.0,0.0,100,0.00,SCT,OVC,0.00,WeatherDisplay:10.37,2013-10-19 10:15:00,
2013-10-19 06:20:00,36.9,36.9,29.82,NW,316,0.0,0.0,100,0.00,SCT,OVC,0.00,WeatherDisplay:10.37,2013-10-19 10:20:00,
2013-10-19 06:25:00,36.9,36.9,29.82,NW,316,0.0,0.0,100,0.00,SCT,OVC,0.00,WeatherDisplay:10.37,2013-10-19 10:25:00,
2013-10-19 06:30:00,37.0,37.0,29.82,NW,316,0.0,0.0,100,0.00,SCT,OVC,0.00,WeatherDisplay:10.37,2013-10-19 10:30:00,
2013-10-19 06:35:00,37.2,37.2,29.82,NW,316,0.0,0.0,100,0.00,SCT,OVC,0.00,WeatherDisplay:10.37,2013-10-19 10:35:00,
2013-10-19 06:40:00,37.2,37.2,29.82,NW,316,0.0,0.0,100,0.00,SCT,OVC,0.00,WeatherDisplay:10.37,2013-10-19 10:40:00,
2013-10-19 06:45:00,37.1,37.1,29.82,NW,316,0.0,0.0,100,0.00,SCT,OVC,0.00,WeatherDisplay:10.37,2013-10-19 10:45:00,
2013-10-19 06:50:00,37.0,37.0,29.82,NW,316,0.0,0.0,100,0.00,SCT,OVC,0.00,WeatherDisplay:10.37,2013-10-19 10:50:00,
2013-10-19 06:55:00,36.9,36.9,29.82,NW,316,0.0,0.0,100,0.00,SCT,OVC,0.00,WeatherDisplay:10.37,2013-10-19 10:55:00,
2013-10-19 07:00:00,36.7,36.7,29.82,NW,316,0.0,0.0,100,0.00,SCT,OVC,0.00,WeatherDisplay:10.37,2013-10-19 11:00:00,
2013-10-19 07:05:00,36.4,36.4,29.83,NW,316,0.0,0.0,100,0.00,SCT,OVC,0.00,WeatherDisplay:10.37,2013-10-19 11:05:00,
2013-10-19 07:10:00,36.3,36.3,29.83,NW,316,0.0,0.0,100,0.00,SCT,OVC,0.00,WeatherDisplay:10.37,2013-10-19 11:10:00,
2013-10-19 07:15:00,36.1,36.1,29.83,NW,316,0.0,0.0,100,0.00,SCT,OVC,0.00,WeatherDisplay:10.37,2013-10-19 11:15:00,
2013-10-19 07:20:00,36.0,36.0,29.83,NW,316,0.0,0.0,100,0.00,SCT,OVC,0.00,WeatherDisplay:10.37,2013-10-19 11:20:00,
2013-10-19 07:30:00,35.6,35.6,29.82,NW,316,0.0,0.0,100,0.00,SCT,OVC,0.00,WeatherDisplay:10.37,2013-10-19 11:30:00,
2013-10-19 07:35:00,35.6,35.6,29.83,NW,316,0.0,0.0,100,0.00,SCT,OVC,0.00,WeatherDisplay:10.37,2013-10-19 11:35:00,
2013-10-19 07:40:00,35.7,35.7,29.83,NW,316,0.0,0.0,100,0.00,SCT,OVC,0.00,WeatherDisplay:10.37,2013-10-19 11:40:00,
2013-10-19 07:45:00,35.8,35.8,29.83,NW,316,0.0,0.0,100,0.00,SCT,OVC,0.00,WeatherDisplay:10.37,2013-10-19 11:45:00,
2013-10-19 07:50:00,36.1,36.1,29.83,NW,316,0.0,0.0,100,0.00,SCT,OVC,0.00,WeatherDisplay:10.37,2013-10-19 11:50:00,
2013-10-19 08:00:00,37.0,37.0,29.83,NW,316,0.0,0.0,100,0.00,SCT,OVC,0.00,WeatherDisplay:10.37,2013-10-19 12:00:00,
2013-10-19 08:05:00,37.4,37.4,29.83,NW,316,0.0,0.0,100,0.00,SCT,OVC,0.00,WeatherDisplay:10.37,2013-10-19 12:05:00,
2013-10-19 08:10:00,37.7,37.7,29.83,NW,316,0.0,0.0,100,0.00,SCT,OVC,0.00,WeatherDisplay:10.37,2013-10-19 12:10:00,
2013-10-19 08:15:00,38.0,38.0,29.83,NW,316,0.0,0.0,100,0.00,BKN,OVC,0.00,WeatherDisplay:10.37,2013-10-19 12:15:00,
2013-10-19 08:20:00,38.1,38.1,29.83,NW,316,0.0,0.0,100,0.00,BKN,OVC,0.00,WeatherDisplay:10.37,2013-10-19 12:20:00,
2013-10-19 08:25:00,38.1,38.1,29.83,NW,316,0.0,0.0,100,0.00,BKN,OVC,0.00,WeatherDisplay:10.37,2013-10-19 12:25:00,
2013-10-19 08:30:00,38.1,38.1,29.83,NW,316,0.0,0.0,100,0.00,BKN,OVC,0.00,WeatherDisplay:10.37,2013-10-19 12:30:00,
2013-10-19 08:35:00,38.2,38.2,29.83,NW,316,0.0,0.0,100,0.00,BKN,OVC,0.00,WeatherDisplay:10.37,2013-10-19 12:35:00,
2013-10-19 08:40:00,38.5,38.5,29.84,NW,316,0.0,0.0,100,0.00,BKN,OVC,0.00,WeatherDisplay:10.37,2013-10-19 12:40:00,
2013-10-19 08:45:00,39.0,39.0,29.84,NW,316,0.0,0.0,100,0.00,BKN,OVC,0.00,WeatherDisplay:10.37,2013-10-19 12:45:00,
2013-10-19 08:50:00,39.6,39.6,29.84,NW,316,0.0,0.0,100,0.00,BKN,OVC,0.00,WeatherDisplay:10.37,2013-10-19 12:50:00,
2013-10-19 09:00:00,40.8,40.8,29.84,NW,316,0.0,0.0,100,0.00,BKN,OVC,0.00,WeatherDisplay:10.37,2013-10-19 13:00:00,
2013-10-19 09:05:00,41.5,41.5,29.84,NW,316,0.0,0.0,100,0.00,BKN,OVC,0.00,WeatherDisplay:10.37,2013-10-19 13:05:00,
2013-10-19 09:10:00,41.7,41.7,29.83,NW,316,0.0,0.0,100,0.00,BKN,OVC,0.00,WeatherDisplay:10.37,2013-10-19 13:10:00,
2013-10-19 09:15:00,42.0,42.0,29.84,NW,316,0.0,0.0,100,0.00,BKN,OVC,0.00,WeatherDisplay:10.37,2013-10-19 13:15:00,
2013-10-19 09:20:00,42.4,42.4,29.84,NW,316,0.0,0.0,100,0.00,BKN,OVC,0.00,WeatherDisplay:10.37,2013-10-19 13:20:00,
2013-10-19 09:25:00,43.0,43.0,29.84,NW,316,0.0,0.0,100,0.00,BKN,OVC,0.00,WeatherDisplay:10.37,2013-10-19 13:25:00,
2013-10-19 09:30:00,43.3,43.3,29.83,NNW,327,0.0,0.0,100,0.00,BKN,OVC,0.00,WeatherDisplay:10.37,2013-10-19 13:30:00,
2013-10-19 09:35:00,43.7,43.7,29.83,NNW,347,0.0,0.0,100,0.00,BKN,OVC,0.00,WeatherDisplay:10.37,2013-10-19 13:35:00,
2013-10-19 09:40:00,44.3,44.3,29.83,North,355,0.0,0.0,100,0.00,BKN,OVC,0.00,WeatherDisplay:10.37,2013-10-19 13:40:00,
2013-10-19 09:45:00,45.0,45.0,29.83,North,355,0.0,0.0,100,0.00,BKN,OVC,0.00,WeatherDisplay:10.37,2013-10-19 13:45:00,
2013-10-19 09:50:00,45.4,45.4,29.83,North,355,0.0,0.0,100,0.00,BKN,OVC,0.00,WeatherDisplay:10.37,2013-10-19 13:50:00,
2013-10-19 10:00:00,45.2,45.2,29.83,North,355,0.0,0.0,100,0.00,BKN,OVC,0.00,WeatherDisplay:10.37,2013-10-19 14:00:00,
2013-10-19 10:05:00,45.6,45.6,29.83,North,355,0.0,0.0,100,0.00,BKN,OVC,0.00,WeatherDisplay:10.37,2013-10-19 14:05:00,
2013-10-19 10:10:00,46.2,45.1,29.83,North,355,0.0,0.0,96,0.00,BKN,OVC,0.00,WeatherDisplay:10.37,2013-10-19 14:10:00,
2013-10-19 10:15:00,47.1,47.1,29.83,North,5,0.0,0.0,100,0.00,OVC,OVC,0.00,WeatherDisplay:10.37,2013-10-19 14:15:00,
2013-10-19 10:20:00,47.8,46.2,29.83,NE,35,0.0,0.0,94,0.00,OVC,OVC,0.00,WeatherDisplay:10.37,2013-10-19 14:20:00,
2013-10-19 10:25:00,48.0,46.1,29.83,NE,44,0.0,1.0,93,0.00,OVC,OVC,0.00,WeatherDisplay:10.37,2013-10-19 14:25:00,
2013-10-19 10:30:00,47.8,45.6,29.83,WNW,293,0.0,0.0,92,0.00,OVC,OVC,0.00,WeatherDisplay:10.37,2013-10-19 14:30:00,
2013-10-19 10:35:00,48.1,45.6,29.82,West,280,0.0,0.0,91,0.00,OVC,OVC,0.00,WeatherDisplay:10.37,2013-10-19 14:35:00,
2013-10-19 10:40:00,49.0,46.8,29.82,WSW,246,0.0,0.0,92,0.00,OVC,OVC,0.00,WeatherDisplay:10.37,2013-10-19 14:40:00,
2013-10-19 10:45:00,49.3,46.5,29.81,SE,143,0.0,0.0,90,0.00,OVC,OVC,0.00,WeatherDisplay:10.37,2013-10-19 14:45:00,
2013-10-19 10:50:00,49.4,46.0,29.81,SE,139,0.0,0.0,88,0.00,OVC,OVC,0.00,WeatherDisplay:10.37,2013-10-19 14:50:00,
2013-10-19 10:55:00,49.5,46.7,29.82,SE,144,0.0,0.0,90,0.00,OVC,OVC,0.00,WeatherDisplay:10.37,2013-10-19 14:55:00,
2013-10-19 11:00:00,49.9,46.8,29.82,SE,141,0.0,0.0,89,0.00,OVC,OVC,0.00,WeatherDisplay:10.37,2013-10-19 15:00:00,
2013-10-19 11:05:00,50.9,47.2,29.82,SE,137,0.0,1.0,87,0.00,OVC,OVC,0.00,WeatherDisplay:10.37,2013-10-19 15:05:00,
2013-10-19 11:10:00,50.4,47.0,29.82,SE,142,0.0,0.0,88,0.00,OVC,OVC,0.00,WeatherDisplay:10.37,2013-10-19 15:10:00,
2013-10-19 11:15:00,50.1,46.7,29.82,SW,221,0.0,0.0,88,0.00,OVC,OVC,0.00,WeatherDisplay:10.37,2013-10-19 15:15:00,
2013-10-19 11:20:00,50.5,46.8,29.81,WSW,246,0.0,0.0,87,0.00,OVC,OVC,0.00,WeatherDisplay:10.37,2013-10-19 15:20:00,
2013-10-19 11:25:00,50.6,47.2,29.81,South,191,0.0,0.0,88,0.00,OVC,OVC,0.00,WeatherDisplay:10.37,2013-10-19 15:25:00,
2013-10-19 11:30:00,50.6,46.9,29.81,SSW,197,0.0,2.0,87,0.00,OVC,OVC,0.00,WeatherDisplay:10.37,2013-10-19 15:30:00,
2013-10-19 11:35:00,50.4,47.0,29.81,SW,228,0.0,2.0,88,0.00,OVC,OVC,0.00,WeatherDisplay:10.37,2013-10-19 15:35:00,
2013-10-19 11:40:00,50.7,47.2,29.82,SW,235,0.0,2.0,88,0.00,OVC,OVC,0.00,WeatherDisplay:10.37,2013-10-19 15:40:00,
2013-10-19 11:45:00,50.8,47.1,29.82,SW,235,0.0,0.0,87,0.00,OVC,OVC,0.00,WeatherDisplay:10.37,2013-10-19 15:45:00,
2013-10-19 11:50:00,50.9,47.5,29.82,SW,226,0.0,1.0,88,0.00,OVC,OVC,0.00,WeatherDisplay:10.37,2013-10-19 15:50:00,
2013-10-19 11:55:00,51.2,47.8,29.82,SW,232,0.0,2.0,88,0.00,OVC,OVC,0.00,WeatherDisplay:10.37,2013-10-19 15:55:00,
2013-10-19 12:05:00,51.2,47.2,29.81,SSW,206,0.0,0.0,86,0.00,OVC,OVC,0.00,WeatherDisplay:10.37,2013-10-19 16:05:00,
2013-10-19 12:10:00,51.4,48.0,29.81,South,182,0.0,0.0,88,0.00,OVC,OVC,0.00,WeatherDisplay:10.37,2013-10-19 16:10:00,
2013-10-19 12:15:00,51.6,47.5,29.81,South,173,0.0,0.0,86,0.00,OVC,OVC,0.00,WeatherDisplay:10.37,2013-10-19 16:15:00,
2013-10-19 12:20:00,51.6,47.5,29.81,South,173,0.0,0.0,86,0.00,OVC,OVC,0.00,WeatherDisplay:10.37,2013-10-19 16:20:00,
2013-10-19 12:25:00,51.7,48.0,29.80,South,180,0.0,1.0,87,0.00,OVC,OVC,0.00,WeatherDisplay:10.37,2013-10-19 16:25:00,
2013-10-19 12:30:00,51.7,47.6,29.80,SSW,213,0.0,1.0,86,0.00,OVC,OVC,0.00,WeatherDisplay:10.37,2013-10-19 16:30:00,
2013-10-19 12:35:00,51.7,47.6,29.80,SW,223,0.0,0.0,86,0.00,OVC,OVC,0.00,WeatherDisplay:10.37,2013-10-19 16:35:00,
2013-10-19 12:40:00,51.8,47.7,29.79,SW,223,0.0,0.0,86,0.00,OVC,OVC,0.00,WeatherDisplay:10.37,2013-10-19 16:40:00,
2013-10-19 12:45:00,51.8,48.0,29.79,SW,223,0.0,0.0,87,0.00,OVC,OVC,0.00,WeatherDisplay:10.37,2013-10-19 16:45:00,
2013-10-19 12:50:00,52.0,47.6,29.79,WSW,254,0.0,2.0,85,0.00,OVC,OVC,0.00,WeatherDisplay:10.37,2013-10-19 16:50:00,
2013-10-19 12:54:00,52.0,47.6,29.79,NNW,327,0.0,0.0,85,0.00,OVC,OVC,0.00,WeatherDisplay:10.37,2013-10-19 16:54:00,
2013-10-19 13:00:00,52.4,48.6,29.79,NNW,327,0.0,0.0,87,0.00,OVC,OVC,0.00,WeatherDisplay:10.37,2013-10-19 17:00:00,
2013-10-19 13:05:00,52.5,48.8,29.79,North,8,0.0,0.0,87,0.00,OVC,OVC,0.00,WeatherDisplay:10.37,2013-10-19 17:05:00,
2013-10-19 13:10:00,52.6,48.5,29.79,NE,39,0.0,0.0,86,0.00,OVC,OVC,0.00,WeatherDisplay:10.37,2013-10-19 17:10:00,
2013-10-19 13:15:00,52.7,48.3,29.79,NE,45,0.0,0.0,85,0.00,OVC,OVC,0.00,WeatherDisplay:10.37,2013-10-19 17:15:00,
2013-10-19 13:20:00,52.8,48.7,29.79,NE,47,0.0,0.0,86,0.00,OVC,OVC,0.00,WeatherDisplay:10.37,2013-10-19 17:20:00,
2013-10-19 13:24:00,52.6,48.2,29.79,NE,54,0.0,0.0,85,0.00,OVC,OVC,0.00,WeatherDisplay:10.37,2013-10-19 17:24:00,
2013-10-19 13:30:00,52.7,48.6,29.78,ENE,73,0.0,0.0,86,0.00,OVC,OVC,0.00,WeatherDisplay:10.37,2013-10-19 17:30:00,
2013-10-19 13:35:00,53.0,48.9,29.78,East,99,0.0,0.0,86,0.00,OVC,OVC,0.00,WeatherDisplay:10.37,2013-10-19 17:35:00,
2013-10-19 13:40:00,52.9,48.5,29.78,SE,124,0.0,0.0,85,0.00,OVC,OVC,0.00,WeatherDisplay:10.37,2013-10-19 17:40:00,
2013-10-19 13:45:00,52.9,48.8,29.78,SE,132,0.0,0.0,86,0.00,OVC,OVC,0.00,WeatherDisplay:10.37,2013-10-19 17:45:00,
2013-10-19 13:50:00,53.1,49.0,29.77,SE,132,0.0,0.0,86,0.00,OVC,OVC,0.00,WeatherDisplay:10.37,2013-10-19 17:50:00,
2013-10-19 13:55:00,53.3,48.9,29.77,SE,146,0.0,0.0,85,0.00,OVC,OVC,0.00,WeatherDisplay:10.37,2013-10-19 17:55:00,
2013-10-19 14:00:00,53.3,48.9,29.77,South,185,0.0,0.0,85,0.00,OVC,OVC,0.00,WeatherDisplay:10.37,2013-10-19 18:00:00,
2013-10-19 14:05:00,53.3,48.9,29.77,South,190,0.0,0.0,85,0.00,OVC,OVC,0.00,WeatherDisplay:10.37,2013-10-19 18:05:00,
2013-10-19 14:09:00,53.2,48.8,29.77,South,176,0.0,0.0,85,0.00,OVC,OVC,0.00,WeatherDisplay:10.37,2013-10-19 18:09:00,
2013-10-19 14:15:00,53.0,48.9,29.76,South,173,0.0,0.0,86,0.00,OVC,OVC,0.00,WeatherDisplay:10.37,2013-10-19 18:15:00,
2013-10-19 14:20:00,53.0,48.9,29.77,South,172,0.0,0.0,86,0.00,OVC,OVC,0.00,WeatherDisplay:10.37,2013-10-19 18:20:00,
2013-10-19 14:25:00,52.9,48.8,29.76,South,171,0.0,0.0,86,0.00,OVC,OVC,0.00,WeatherDisplay:10.37,2013-10-19 18:25:00,
2013-10-19 14:30:00,52.7,48.9,29.76,South,171,0.0,0.0,87,0.00,OVC,OVC,0.00,WeatherDisplay:10.37,2013-10-19 18:30:00,
2013-10-19 14:34:00,52.8,49.3,29.76,South,171,0.0,0.0,88,0.00,OVC,OVC,0.00,WeatherDisplay:10.37,2013-10-19 18:34:00,
2013-10-19 14:40:00,52.6,49.7,29.76,South,171,0.0,0.0,90,0.00,OVC,OVC,0.00,WeatherDisplay:10.37,2013-10-19 18:40:00,
2013-10-19 14:44:00,52.3,49.2,29.76,South,171,0.0,0.0,89,0.00,OVC,OVC,0.00,WeatherDisplay:10.37,2013-10-19 18:44:00,
2013-10-19 14:50:00,52.0,49.5,29.76,South,171,0.0,0.0,91,0.00,OVC,OVC,0.00,WeatherDisplay:10.37,2013-10-19 18:50:00,
2013-10-19 14:55:00,52.0,50.0,29.75,South,171,0.0,0.0,93,0.00,OVC,OVC,0.00,WeatherDisplay:10.37,2013-10-19 18:55:00,
2013-10-19 15:00:00,52.1,50.1,29.75,South,171,0.0,0.0,93,0.00,OVC,OVC,0.00,WeatherDisplay:10.37,2013-10-19 19:00:00,
2013-10-19 15:09:00,52.5,50.5,29.74,South,171,0.0,0.0,93,0.01,RA,OVC,0.01,WeatherDisplay:10.37,2013-10-19 19:09:00,
2013-10-19 15:14:00,52.5,50.5,29.74,SE,138,0.0,0.0,93,0.00,RA,OVC,0.01,WeatherDisplay:10.37,2013-10-19 19:14:00,
2013-10-19 15:19:00,52.6,50.6,29.74,East,90,0.0,0.0,93,0.00,OVC,OVC,0.01,WeatherDisplay:10.37,2013-10-19 19:19:00,
2013-10-19 15:24:00,52.7,50.4,29.74,East,84,0.0,1.0,92,0.00,OVC,OVC,0.01,WeatherDisplay:10.37,2013-10-19 19:24:00,
2013-10-19 15:30:00,52.8,50.2,29.74,East,84,0.0,0.0,91,0.00,OVC,OVC,0.01,WeatherDisplay:10.37,2013-10-19 19:30:00,
2013-10-19 15:34:00,53.1,50.5,29.73,East,84,0.0,0.0,91,0.00,OVC,OVC,0.01,WeatherDisplay:10.37,2013-10-19 19:34:00,
2013-10-19 15:40:00,53.3,50.4,29.73,East,84,0.0,0.0,90,0.00,OVC,OVC,0.01,WeatherDisplay:10.37,2013-10-19 19:40:00,
2013-10-19 15:44:00,53.4,50.2,29.73,East,84,0.0,0.0,89,0.00,OVC,OVC,0.01,WeatherDisplay:10.37,2013-10-19 19:44:00,
2013-10-19 15:50:00,53.4,50.9,29.73,East,84,0.0,0.0,91,0.00,OVC,OVC,0.01,WeatherDisplay:10.37,2013-10-19 19:50:00,
2013-10-19 15:54:00,53.4,50.5,29.73,ENE,75,0.0,0.0,90,0.00,OVC,OVC,0.01,WeatherDisplay:10.37,2013-10-19 19:54:00,
2013-10-19 16:00:00,53.4,50.2,29.73,NE,50,0.0,0.0,89,0.00,OVC,OVC,0.01,WeatherDisplay:10.37,2013-10-19 20:00:00,
2013-10-19 16:09:00,53.6,50.2,29.72,NE,48,0.0,7.0,88,0.00,OVC,OVC,0.01,WeatherDisplay:10.37,2013-10-19 20:09:00,
2013-10-19 16:15:00,53.8,51.0,29.72,East,93,0.0,0.0,90,0.00,OVC,OVC,0.01,WeatherDisplay:10.37,2013-10-19 20:15:00,
2013-10-19 16:19:00,54.0,50.8,29.72,East,94,0.0,0.0,89,0.00,OVC,OVC,0.01,WeatherDisplay:10.37,2013-10-19 20:19:00,
2013-10-19 16:25:00,54.1,50.6,29.71,ENE,76,0.0,0.0,88,0.00,OVC,OVC,0.01,WeatherDisplay:10.37,2013-10-19 20:25:00,
2013-10-19 16:29:00,54.2,50.7,29.71,ENE,64,0.0,1.0,88,0.00,OVC,OVC,0.01,WeatherDisplay:10.37,2013-10-19 20:29:00,
2013-10-19 16:34:00,53.9,50.1,29.71,NE,56,0.0,0.0,87,0.00,OVC,OVC,0.01,WeatherDisplay:10.37,2013-10-19 20:34:00,
2013-10-19 16:40:00,53.7,50.2,29.71,ENE,57,0.0,0.0,88,0.00,OVC,OVC,0.01,WeatherDisplay:10.37,2013-10-19 20:40:00,
2013-10-19 16:44:00,53.5,50.0,29.71,ENE,63,0.0,1.0,88,0.00,OVC,OVC,0.01,WeatherDisplay:10.37,2013-10-19 20:44:00,
2013-10-19 16:49:00,53.4,49.9,29.71,East,97,0.0,0.0,88,0.00,OVC,OVC,0.01,WeatherDisplay:10.37,2013-10-19 20:49:00,
2013-10-19 16:54:00,53.4,50.2,29.71,ESE,103,0.0,0.0,89,0.00,OVC,OVC,0.01,WeatherDisplay:10.37,2013-10-19 20:54:00,
2013-10-19 17:00:00,53.3,50.2,29.70,ESE,103,0.0,0.0,89,0.00,OVC,OVC,0.01,WeatherDisplay:10.37,2013-10-19 21:00:00,
2013-10-19 17:05:00,53.4,50.2,29.70,ESE,103,0.0,0.0,89,0.00,OVC,OVC,0.01,WeatherDisplay:10.37,2013-10-19 21:05:00,
2013-10-19 17:09:00,53.3,50.1,29.70,East,99,0.0,0.0,89,0.00,OVC,OVC,0.01,WeatherDisplay:10.37,2013-10-19 21:09:00,
2013-10-19 17:14:00,53.1,50.3,29.69,East,96,0.0,0.0,90,0.00,OVC,OVC,0.01,WeatherDisplay:10.37,2013-10-19 21:14:00,
2013-10-19 17:19:00,52.9,50.0,29.69,East,96,0.0,0.0,90,0.00,OVC,OVC,0.01,WeatherDisplay:10.37,2013-10-19 21:19:00,
2013-10-19 17:24:00,52.7,49.8,29.69,East,96,0.0,0.0,90,0.00,OVC,OVC,0.01,WeatherDisplay:10.37,2013-10-19 21:24:00,
2013-10-19 17:29:00,52.5,49.9,29.69,East,96,0.0,0.0,91,0.00,OVC,OVC,0.01,WeatherDisplay:10.37,2013-10-19 21:29:00,
2013-10-19 17:34:00,52.4,49.8,29.69,East,96,0.0,0.0,91,0.00,OVC,OVC,0.01,WeatherDisplay:10.37,2013-10-19 21:34:00,
2013-10-19 17:39:00,52.2,49.7,29.69,East,96,0.0,0.0,91,0.00,OVC,OVC,0.01,WeatherDisplay:10.37,2013-10-19 21:39:00,
2013-10-19 17:44:00,52.1,49.6,29.68,East,96,0.0,0.0,91,0.00,OVC,OVC,0.01,WeatherDisplay:10.37,2013-10-19 21:44:00,
2013-10-19 17:49:00,52.0,49.7,29.68,East,96,0.0,0.0,92,0.00,OVC,OVC,0.01,WeatherDisplay:10.37,2013-10-19 21:49:00,
2013-10-19 17:54:00,51.9,49.6,29.68,East,96,0.0,0.0,92,0.00,OVC,OVC,0.01,WeatherDisplay:10.37,2013-10-19 21:54:00,
2013-10-19 17:59:00,51.9,49.6,29.68,East,96,0.0,0.0,92,0.00,OVC,OVC,0.01,WeatherDisplay:10.37,2013-10-19 21:59:00,
2013-10-19 18:04:00,51.6,49.7,29.68,East,80,0.0,0.0,93,0.00,OVC,OVC,0.01,WeatherDisplay:10.37,2013-10-19 22:04:00,
2013-10-19 18:09:00,51.4,49.4,29.68,ESE,105,0.0,0.0,93,0.00,OVC,OVC,0.01,WeatherDisplay:10.37,2013-10-19 22:09:00,
2013-10-19 18:14:00,51.2,49.5,29.68,South,183,0.0,0.0,94,0.00,OVC,OVC,0.01,WeatherDisplay:10.37,2013-10-19 22:14:00,
2013-10-19 18:19:00,51.1,49.4,29.68,North,1,0.0,0.0,94,0.00,OVC,OVC,0.01,WeatherDisplay:10.37,2013-10-19 22:19:00,
2013-10-19 18:24:00,50.9,49.2,29.67,North,5,0.0,0.0,94,0.00,OVC,OVC,0.01,WeatherDisplay:10.37,2013-10-19 22:24:00,
2013-10-19 18:29:00,50.8,49.1,29.67,North,5,0.0,0.0,94,0.00,OVC,OVC,0.01,WeatherDisplay:10.37,2013-10-19 22:29:00,
2013-10-19 18:34:00,50.7,49.0,29.67,North,5,0.0,0.0,94,0.00,OVC,OVC,0.01,WeatherDisplay:10.37,2013-10-19 22:34:00,
2013-10-19 18:39:00,50.5,48.8,29.67,North,5,0.0,0.0,94,0.00,OVC,OVC,0.01,WeatherDisplay:10.37,2013-10-19 22:39:00,
2013-10-19 18:44:00,50.5,48.8,29.66,North,5,0.0,0.0,94,0.00,OVC,OVC,0.01,WeatherDisplay:10.37,2013-10-19 22:44:00,
2013-10-19 18:49:00,50.7,49.0,29.66,NE,43,0.0,0.0,94,0.00,OVC,OVC,0.01,WeatherDisplay:10.37,2013-10-19 22:49:00,
2013-10-19 18:54:00,50.5,48.9,29.66,ENE,77,0.0,1.0,94,0.00,OVC,OVC,0.01,WeatherDisplay:10.37,2013-10-19 22:54:00,
2013-10-19 18:59:00,50.5,48.8,29.66,ENE,70,0.0,1.0,94,0.00,OVC,OVC,0.01,WeatherDisplay:10.37,2013-10-19 22:59:00,
2013-10-19 19:04:00,50.4,48.7,29.66,ENE,64,0.0,0.0,94,0.00,OVC,OVC,0.01,WeatherDisplay:10.37,2013-10-19 23:04:00,
2013-10-19 19:09:00,50.4,48.7,29.65,ENE,64,0.0,0.0,94,0.00,OVC,OVC,0.01,WeatherDisplay:10.37,2013-10-19 23:09:00,
2013-10-19 19:14:00,50.3,48.6,29.65,ENE,69,0.0,0.0,94,0.00,BKN,OVC,0.01,WeatherDisplay:10.37,2013-10-19 23:14:00,
2013-10-19 19:19:00,50.1,48.4,29.65,East,80,0.0,0.0,94,0.00,BKN,OVC,0.01,WeatherDisplay:10.37,2013-10-19 23:19:00,
2013-10-19 19:24:00,50.0,48.6,29.65,East,88,0.0,0.0,95,0.00,BKN,OVC,0.01,WeatherDisplay:10.37,2013-10-19 23:24:00,
2013-10-19 19:29:00,50.2,48.8,29.64,East,88,0.0,0.0,95,0.00,BKN,OVC,0.01,WeatherDisplay:10.37,2013-10-19 23:29:00,
2013-10-19 19:34:00,50.3,48.9,29.64,East,88,0.0,0.0,95,0.00,BKN,OVC,0.01,WeatherDisplay:10.37,2013-10-19 23:34:00,
2013-10-19 19:39:00,50.2,48.6,29.64,East,88,0.0,0.0,94,0.00,BKN,OVC,0.01,WeatherDisplay:10.37,2013-10-19 23:39:00,
2013-10-19 19:44:00,50.1,48.4,29.63,East,88,0.0,0.0,94,0.00,BKN,OVC,0.01,WeatherDisplay:10.37,2013-10-19 23:44:00,
2013-10-19 19:49:00,50.0,48.4,29.63,East,88,0.0,0.0,94,0.00,BKN,OVC,0.01,WeatherDisplay:10.37,2013-10-19 23:49:00,
2013-10-19 19:54:00,49.8,48.1,29.63,East,88,0.0,0.0,94,0.00,BKN,OVC,0.01,WeatherDisplay:10.37,2013-10-19 23:54:00,
2013-10-19 19:59:00,49.6,48.2,29.63,East,88,0.0,0.0,95,0.00,BKN,OVC,0.01,WeatherDisplay:10.37,2013-10-19 23:59:00,
2013-10-19 20:05:00,49.6,48.2,29.62,East,88,0.0,0.0,95,0.00,BKN,OVC,0.01,WeatherDisplay:10.37,2013-10-20 00:05:00,
2013-10-19 20:14:00,49.7,48.3,29.62,East,88,0.0,0.0,95,0.00,BKN,OVC,0.01,WeatherDisplay:10.37,2013-10-20 00:14:00,
2013-10-19 20:19:00,49.7,48.3,29.62,East,88,0.0,0.0,95,0.00,BKN,OVC,0.01,WeatherDisplay:10.37,2013-10-20 00:19:00,
2013-10-19 20:24:00,49.6,48.2,29.62,East,88,0.0,0.0,95,0.00,BKN,OVC,0.01,WeatherDisplay:10.37,2013-10-20 00:24:00,
2013-10-19 20:29:00,49.6,48.2,29.61,East,88,0.0,0.0,95,0.00,BKN,OVC,0.01,WeatherDisplay:10.37,2013-10-20 00:29:00,
2013-10-19 20:34:00,49.4,48.0,29.61,East,88,0.0,0.0,95,0.00,BKN,OVC,0.01,WeatherDisplay:10.37,2013-10-20 00:34:00,
2013-10-19 20:39:00,49.4,48.0,29.61,East,88,0.0,0.0,95,0.00,BKN,OVC,0.01,WeatherDisplay:10.37,2013-10-20 00:39:00,
2013-10-19 20:44:00,49.4,48.0,29.60,East,88,0.0,0.0,95,0.00,BKN,OVC,0.01,WeatherDisplay:10.37,2013-10-20 00:44:00,
2013-10-19 20:49:00,49.4,48.0,29.60,East,88,0.0,0.0,95,0.00,BKN,OVC,0.01,WeatherDisplay:10.37,2013-10-20 00:49:00,
2013-10-19 20:54:00,49.4,48.0,29.60,East,88,0.0,0.0,95,0.00,BKN,OVC,0.01,WeatherDisplay:10.37,2013-10-20 00:54:00,
2013-10-19 20:59:00,49.4,48.0,29.60,East,88,0.0,0.0,95,0.00,BKN,OVC,0.01,WeatherDisplay:10.37,2013-10-20 00:59:00,
2013-10-19 21:04:00,49.4,48.0,29.60,East,88,0.0,0.0,95,0.00,BKN,OVC,0.01,WeatherDisplay:10.37,2013-10-20 01:04:00,
2013-10-19 21:09:00,49.5,48.1,29.60,East,88,0.0,0.0,95,0.00,BKN,OVC,0.01,WeatherDisplay:10.37,2013-10-20 01:09:00,
2013-10-19 21:14:00,49.4,48.0,29.60,East,88,0.0,0.0,95,0.00,OVC,OVC,0.01,WeatherDisplay:10.37,2013-10-20 01:14:00,
2013-10-19 21:19:00,49.3,47.9,29.59,East,88,0.0,0.0,95,0.00,OVC,OVC,0.01,WeatherDisplay:10.37,2013-10-20 01:19:00,
2013-10-19 21:24:00,49.3,47.9,29.59,East,88,0.0,0.0,95,0.00,OVC,OVC,0.01,WeatherDisplay:10.37,2013-10-20 01:24:00,
2013-10-19 21:29:00,49.3,48.2,29.59,East,88,0.0,0.0,96,0.00,OVC,OVC,0.01,WeatherDisplay:10.37,2013-10-20 01:29:00,
2013-10-19 21:34:00,49.3,48.2,29.59,East,88,0.0,0.0,96,0.00,OVC,OVC,0.01,WeatherDisplay:10.37,2013-10-20 01:34:00,
2013-10-19 21:39:00,49.3,48.2,29.59,East,88,0.0,0.0,96,0.00,OVC,OVC,0.01,WeatherDisplay:10.37,2013-10-20 01:39:00,
2013-10-19 21:44:00,49.3,48.2,29.59,East,88,0.0,0.0,96,0.00,OVC,OVC,0.01,WeatherDisplay:10.37,2013-10-20 01:44:00,
2013-10-19 21:49:00,49.2,48.1,29.59,East,88,0.0,0.0,96,0.00,OVC,OVC,0.01,WeatherDisplay:10.37,2013-10-20 01:49:00,
2013-10-19 21:54:00,49.2,48.1,29.59,East,88,0.0,0.0,96,0.00,OVC,OVC,0.01,WeatherDisplay:10.37,2013-10-20 01:54:00,
2013-10-19 21:59:00,49.1,48.0,29.59,East,88,0.0,0.0,96,0.00,OVC,OVC,0.01,WeatherDisplay:10.37,2013-10-20 01:59:00,
2013-10-19 22:04:00,49.0,47.9,29.58,East,88,0.0,0.0,96,0.00,OVC,OVC,0.01,WeatherDisplay:10.37,2013-10-20 02:04:00,
2013-10-19 22:09:00,49.0,47.9,29.58,East,88,0.0,0.0,96,0.00,OVC,OVC,0.01,WeatherDisplay:10.37,2013-10-20 02:09:00,
2013-10-19 22:14:00,48.9,47.8,29.58,East,88,0.0,0.0,96,0.00,OVC,OVC,0.01,WeatherDisplay:10.37,2013-10-20 02:14:00,
2013-10-19 22:19:00,48.9,47.8,29.58,East,88,0.0,0.0,96,0.00,OVC,OVC,0.01,WeatherDisplay:10.37,2013-10-20 02:19:00,
2013-10-19 22:24:00,49.0,47.9,29.58,East,88,0.0,0.0,96,0.00,OVC,OVC,0.01,WeatherDisplay:10.37,2013-10-20 02:24:00,
2013-10-19 22:29:00,49.0,47.9,29.58,East,94,0.0,1.0,96,0.00,OVC,OVC,0.01,WeatherDisplay:10.37,2013-10-20 02:29:00,
2013-10-19 22:34:00,49.0,47.9,29.58,SE,126,0.0,1.0,96,0.00,OVC,OVC,0.01,WeatherDisplay:10.37,2013-10-20 02:34:00,
2013-10-19 22:39:00,49.0,47.9,29.58,SSE,153,0.0,0.0,96,0.00,OVC,OVC,0.01,WeatherDisplay:10.37,2013-10-20 02:39:00,
2013-10-19 22:44:00,49.0,47.9,29.58,SSE,153,0.0,0.0,96,0.00,OVC,OVC,0.01,WeatherDisplay:10.37,2013-10-20 02:44:00,
2013-10-19 22:49:00,49.0,47.9,29.57,SSE,153,0.0,0.0,96,0.00,OVC,OVC,0.01,WeatherDisplay:10.37,2013-10-20 02:49:00,
2013-10-19 22:54:00,49.0,47.9,29.57,SSE,153,0.0,0.0,96,0.00,OVC,OVC,0.01,WeatherDisplay:10.37,2013-10-20 02:54:00,
2013-10-19 22:59:00,48.9,48.9,29.57,SSE,161,1.0,3.0,100,0.00,OVC,OVC,0.01,WeatherDisplay:10.37,2013-10-20 02:59:00,
2013-10-19 23:04:00,49.2,48.1,29.57,South,181,0.0,4.0,96,0.00,OVC,OVC,0.01,WeatherDisplay:10.37,2013-10-20 03:04:00,
2013-10-19 23:09:00,49.7,48.6,29.57,South,188,0.0,2.0,96,0.01,RA,OVC,0.02,WeatherDisplay:10.37,2013-10-20 03:09:00,
2013-10-19 23:14:00,49.9,48.2,29.57,SSW,196,1.0,3.0,94,0.00,RA,OVC,0.02,WeatherDisplay:10.37,2013-10-20 03:14:00,
2013-10-19 23:19:00,49.8,48.1,29.57,SSW,197,1.0,6.0,94,0.00,OVC,OVC,0.02,WeatherDisplay:10.37,2013-10-20 03:19:00,
2013-10-19 23:24:00,49.9,47.9,29.57,SSW,199,2.0,10.0,93,0.00,OVC,OVC,0.02,WeatherDisplay:10.37,2013-10-20 03:24:00,
2013-10-19 23:29:00,49.9,48.0,29.57,SSW,203,1.0,3.0,93,0.01,RA,OVC,0.02,WeatherDisplay:10.37,2013-10-20 03:29:00,
2013-10-19 23:34:00,49.8,47.9,29.57,South,187,1.0,5.0,93,0.00,RA,OVC,0.02,WeatherDisplay:10.37,2013-10-20 03:34:00,
2013-10-19 23:39:00,49.6,47.7,29.57,South,187,0.0,3.0,93,0.00,OVC,OVC,0.02,WeatherDisplay:10.37,2013-10-20 03:39:00,
2013-10-19 23:44:00,49.4,47.7,29.57,SSW,205,0.0,4.0,94,0.01,RA,OVC,0.03,WeatherDisplay:10.37,2013-10-20 03:44:00,
2013-10-19 23:49:00,49.3,47.6,29.57,SSW,208,0.0,4.0,94,0.00,RA,OVC,0.03,WeatherDisplay:10.37,2013-10-20 03:49:00,
2013-10-19 23:54:00,49.2,47.8,29.56,South,185,0.0,1.0,95,0.01,RA,OVC,0.04,WeatherDisplay:10.37,2013-10-20 03:54:00,
2013-10-19 23:59:00,49.0,47.7,29.56,South,176,0.0,1.0,95,0.01,RA,OVC,0.00,WeatherDisplay:10.37,2013-10-20 03:59:00,